Lwrnce, Kansas
Current Conditions -  °F | °C
As of 6:52 PM on Tuesday 21 Oct 2014 (Local Time) from KLWC Reporting Station
Clear Clear  
Wind Chill: 62°   Ceiling: Unl
Heat Index: 62°   Visibility: 10mi
Dew Point: 43°   Wind: 7mph
Humidity: 50%   Direction: 100°E
Pressure: 30.06"   Gusts: NA
Location:  38.9329°N, 95.2935°W
Report Text: KLWC 212352Z AUTO 10006KT 10SM CLR 17/06 A3006 RMK AO2 SLP178 T01670061 10239 20167 55003
Loading
Personal Weather Stations






























Interactive Weather Map
Tropical Storm Tracking
New forecast layout! Learn more

10-Day Weather Forecast

Advertisements
Track Severe Weather on mobile